Time;durP1;ratioP1;P1;durP2;ratioP2;P2;SDS_P1;SDS_P2;PMS_P1;PMS_P2;Temp;Humidity;BMP_temperature;BMP_pressure;BME280_temperature;BME280_humidity;BME280_pressure;Samples;Min_cycle;Max_cycle;Signal;HPM_P1;HPM_P2
2023/05/18 03:04:29;;;;;;;0.35;0.35;;;;;;;8.89;100.00;100121.50;987174;23;20367;-92
2023/05/18 03:06:57;;;;;;;0.65;0.65;;;;;;;9.06;100.00;100150.03;4893422;29;20130;-92
2023/05/18 03:09:23;;;;;;;1.33;1.05;;;;;;;9.01;100.00;100143.00;4864436;29;20104;-91
2023/05/18 03:11:52;;;;;;;0.63;0.57;;;;;;;8.99;100.00;100142.66;4858288;29;20072;-91
2023/05/18 03:14:17;;;;;;;0.25;0.25;;;;;;;8.95;100.00;100133.63;4863909;29;20047;-91
2023/05/18 03:16:43;;;;;;;0.63;0.63;;;;;;;8.96;100.00;100132.44;4848148;29;20048;-92
2023/05/18 03:19:14;;;;;;;0.65;0.47;;;;;;;9.11;100.00;100160.59;4864360;29;20041;-92
2023/05/18 03:21:41;;;;;;;0.15;0.15;;;;;;;8.96;100.00;100140.72;4864245;29;20037;-92
2023/05/18 03:24:07;;;;;;;0.20;0.20;;;;;;;8.99;100.00;100153.72;4863734;29;20048;-91
2023/05/18 03:26:37;;;;;;;0.10;0.10;;;;;;;9.10;100.00;100164.59;4862841;29;20119;-92
2023/05/18 03:29:03;;;;;;;0.40;0.20;;;;;;;9.03;100.00;100159.97;4848686;29;20152;-91
2023/05/18 03:31:29;;;;;;;0.20;0.20;;;;;;;9.09;100.00;100169.34;4879976;29;20120;-92
2023/05/18 03:33:57;;;;;;;0.40;0.38;;;;;;;8.89;100.00;100149.16;4865631;29;20056;-91
2023/05/18 03:36:25;;;;;;;0.10;0.10;;;;;;;8.83;100.00;100139.78;4878205;29;20047;-91
2023/05/18 03:38:51;;;;;;;1.00;0.80;;;;;;;9.05;100.00;100165.06;4863226;29;20108;-91
2023/05/18 03:41:17;;;;;;;0.10;0.10;;;;;;;9.07;100.00;100171.75;4868553;29;20052;-91
2023/05/18 03:43:42;;;;;;;4.28;2.17;;;;;;;8.88;100.00;100151.16;4848166;29;20211;-90
2023/05/18 03:46:08;;;;;;;0.77;0.77;;;;;;;8.96;100.00;100165.63;4868761;29;20069;-92
2023/05/18 03:48:33;;;;;;;0.75;0.75;;;;;;;9.08;100.00;100183.59;4848168;29;20242;-92
2023/05/18 03:50:59;;;;;;;0.30;0.30;;;;;;;8.84;100.00;100141.34;4877646;29;20049;-92
2023/05/18 03:53:28;;;;;;;0.10;0.10;;;;;;;8.95;100.00;100164.06;4863721;29;20092;-91
2023/05/18 03:55:55;;;;;;;0.00;0.00;;;;;;;9.00;100.00;100182.16;4861062;29;20052;-91
2023/05/18 03:58:21;;;;;;;0.32;0.32;;;;;;;9.10;100.00;100190.25;4878230;29;20044;-91
2023/05/18 04:00:48;;;;;;;0.70;0.70;;;;;;;9.12;100.00;100179.56;4852420;29;20051;-91
2023/05/18 04:03:14;;;;;;;1.60;1.10;;;;;;;9.12;100.00;100185.09;4875864;29;20051;-91
2023/05/18 04:05:43;;;;;;;0.70;0.45;;;;;;;8.98;100.00;100171.50;4856402;29;20052;-92
2023/05/18 04:08:13;;;;;;;0.25;0.25;;;;;;;9.01;100.00;100178.97;4890513;29;20088;-91
2023/05/18 04:10:41;;;;;;;1.60;0.90;;;;;;;8.90;100.00;100168.09;4872361;29;20497;-92
2023/05/18 04:13:06;;;;;;;0.30;0.30;;;;;;;9.02;100.00;100180.53;4854387;29;20478;-90
2023/05/18 04:15:32;;;;;;;0.75;0.75;;;;;;;9.04;100.00;100180.91;4894687;29;20111;-91
2023/05/18 04:17:58;;;;;;;0.40;0.40;;;;;;;9.00;100.00;100176.63;4894214;29;20108;-91
2023/05/18 04:20:27;;;;;;;0.30;0.30;;;;;;;9.21;100.00;100188.09;4894785;29;20045;-92
2023/05/18 04:22:54;;;;;;;0.10;0.10;;;;;;;8.98;100.00;100179.81;4871118;29;20527;-93
2023/05/18 04:25:20;;;;;;;0.17;0.17;;;;;;;9.17;100.00;100200.44;4860633;29;20047;-92
2023/05/18 04:27:49;;;;;;;0.40;0.40;;;;;;;9.17;100.00;100204.00;4874340;29;20036;-92
2023/05/18 04:30:17;;;;;;;4.18;0.52;;;;;;;9.15;100.00;100195.31;4877537;29;20037;-91
2023/05/18 04:32:43;;;;;;;0.17;0.17;;;;;;;9.19;100.00;100195.25;4859344;29;20416;-92
2023/05/18 04:35:10;;;;;;;0.00;0.00;;;;;;;9.24;100.00;100209.38;4849729;29;20040;-93
2023/05/18 04:37:39;;;;;;;3.50;0.75;;;;;;;9.27;100.00;100208.53;4859495;29;20075;-92
2023/05/18 04:40:11;;;;;;;0.52;0.47;;;;;;;9.15;100.00;100189.78;4847681;29;20068;-92
2023/05/18 04:42:58;;;;;;;0.52;0.17;;;;;;;9.27;100.00;100197.47;4877034;29;20049;-91
2023/05/18 04:45:26;;;;;;;0.50;0.35;;;;;;;9.28;100.00;100203.78;4860456;29;20056;-91
2023/05/18 04:47:53;;;;;;;9.13;1.13;;;;;;;9.30;100.00;100223.53;4873068;29;20087;-92
2023/05/18 04:50:22;;;;;;;0.10;0.10;;;;;;;9.24;100.00;100214.91;4867256;29;20040;-91
2023/05/18 04:52:49;;;;;;;0.22;0.22;;;;;;;9.13;100.00;100197.72;4869272;29;20422;-93
2023/05/18 04:55:26;;;;;;;0.28;0.28;;;;;;;9.17;100.00;100209.53;4864058;29;20071;-94
2023/05/18 04:57:55;;;;;;;0.30;0.30;;;;;;;9.15;100.00;100195.31;4879270;29;20082;-91
2023/05/18 05:00:28;;;;;;;1.35;0.73;;;;;;;9.30;100.00;100229.81;4848775;29;20127;-90
2023/05/18 05:02:54;;;;;;;0.05;0.05;;;;;;;9.22;100.00;100205.50;4884656;29;20628;-94
2023/05/18 05:05:20;;;;;;;0.73;0.73;;;;;;;9.25;100.00;100233.09;4862101;29;20513;-92
2023/05/18 05:07:50;;;;;;;0.20;0.20;;;;;;;9.12;100.00;100190.63;4870261;29;20048;-93
2023/05/18 05:10:16;;;;;;;0.17;0.17;;;;;;;9.07;100.00;100199.41;4864039;29;20659;-92
2023/05/18 05:12:43;;;;;;;0.00;0.00;;;;;;;9.25;100.00;100210.94;4855203;29;20048;-91
2023/05/18 05:15:10;;;;;;;0.73;0.73;;;;;;;9.27;100.00;100211.28;4859338;29;20045;-92
2023/05/18 05:17:36;;;;;;;0.30;0.30;;;;;;;9.17;100.00;100217.03;4861217;29;20045;-91
2023/05/18 05:20:06;;;;;;;0.03;0.03;;;;;;;9.20;100.00;100219.75;4861270;29;20044;-91
2023/05/18 05:22:32;;;;;;;0.75;0.70;;;;;;;9.25;100.00;100227.56;4860485;29;20041;-92
2023/05/18 05:24:58;;;;;;;0.25;0.25;;;;;;;9.22;100.00;100227.63;4858884;29;20742;-91
2023/05/18 05:27:25;;;;;;;0.30;0.30;;;;;;;9.22;100.00;100239.47;4868503;29;20379;-92
2023/05/18 05:29:51;;;;;;;0.70;0.52;;;;;;;9.19;100.00;100234.78;4868573;29;20543;-95
2023/05/18 05:32:16;;;;;;;0.35;0.35;;;;;;;9.16;100.00;100246.69;4869869;29;20132;-91
2023/05/18 05:34:45;;;;;;;0.10;0.10;;;;;;;8.98;100.00;100218.53;4843723;29;20047;-93
2023/05/18 05:37:12;;;;;;;0.85;0.85;;;;;;;9.22;100.00;100255.31;4860648;29;20044;-94
2023/05/18 05:39:37;;;;;;;0.00;0.00;;;;;;;9.14;100.00;100238.03;4861884;29;20043;-94
2023/05/18 05:42:07;;;;;;;0.10;0.10;;;;;;;9.19;100.00;100247.81;4862400;29;20059;-93
2023/05/18 05:44:33;;;;;;;2.40;1.88;;;;;;;9.11;100.00;100238.88;4859766;29;20049;-93
2023/05/18 05:46:59;;;;;;;0.68;0.68;;;;;;;9.13;100.00;100230.16;4844123;29;20053;-93
2023/05/18 05:49:27;;;;;;;0.73;0.70;;;;;;;9.07;100.00;100232.63;4857753;29;20036;-92
2023/05/18 05:51:53;;;;;;;0.82;0.82;;;;;;;9.28;100.00;100254.38;4863306;29;20048;-93
2023/05/18 05:54:19;;;;;;;1.25;0.88;;;;;;;9.23;100.00;100240.25;4868689;29;20132;-95
2023/05/18 05:56:45;;;;;;;0.00;0.00;;;;;;;9.23;100.00;100238.25;4844093;29;20048;-92
2023/05/18 05:59:12;;;;;;;0.10;0.10;;;;;;;9.41;100.00;100259.31;4845447;29;20679;-93
2023/05/18 06:01:37;;;;;;;0.30;0.30;;;;;;;9.49;100.00;100263.50;4887967;29;20052;-93
2023/05/18 06:04:05;;;;;;;1.40;0.80;;;;;;;9.42;100.00;100258.13;4844716;29;20104;-94
2023/05/18 06:06:31;;;;;;;0.38;0.38;;;;;;;9.36;100.00;100233.69;4857609;29;20040;-92
2023/05/18 06:08:56;;;;;;;0.22;0.22;;;;;;;9.50;100.00;100251.22;4843908;29;20563;-92
2023/05/18 06:11:23;;;;;;;0.30;0.30;;;;;;;9.55;100.00;100264.56;4853345;29;20136;-92
2023/05/18 06:13:51;;;;;;;0.52;0.52;;;;;;;9.63;100.00;100257.69;4844564;29;20140;-92
2023/05/18 06:16:20;;;;;;;0.10;0.10;;;;;;;9.43;100.00;100231.97;4843569;29;20116;-90
2023/05/18 06:18:46;;;;;;;0.47;0.47;;;;;;;9.64;100.00;100262.81;4864023;29;20091;-93
2023/05/18 06:21:12;;;;;;;0.57;0.57;;;;;;;9.50;100.00;100259.53;4848020;29;20386;-93
2023/05/18 06:23:38;;;;;;;0.75;0.65;;;;;;;9.61;100.00;100277.50;4847397;29;20040;-93
2023/05/18 06:26:18;;;;;;;0.65;0.65;;;;;;;9.48;100.00;100261.94;4840838;29;20037;-92
2023/05/18 06:28:49;;;;;;;0.17;0.17;;;;;;;9.36;100.00;100244.75;4861867;29;20045;-93
2023/05/18 06:31:29;;;;;;;0.85;0.85;;;;;;;9.56;100.00;100274.44;4863436;29;20144;-93
2023/05/18 06:34:01;;;;;;;0.32;0.30;;;;;;;9.50;100.00;100251.22;4855790;29;20049;-92
2023/05/18 06:36:26;;;;;;;0.68;0.65;;;;;;;9.62;100.00;100267.22;4845330;29;20051;-93
2023/05/18 06:38:52;;;;;;;0.20;0.20;;;;;;;9.66;100.00;100279.00;4850417;29;20131;-92
2023/05/18 06:41:18;;;;;;;0.55;0.55;;;;;;;9.69;100.00;100278.94;4876373;29;20124;-93
2023/05/18 06:43:43;;;;;;;0.38;0.38;;;;;;;9.68;100.00;100266.28;4859232;29;20445;-92
2023/05/18 06:46:25;;;;;;;0.88;0.82;;;;;;;9.57;100.00;100237.25;4874442;29;20048;-93
2023/05/18 06:49:00;;;;;;;0.10;0.10;;;;;;;9.74;100.00;100274.91;4851529;29;20140;-92
2023/05/18 06:51:26;;;;;;;0.70;0.60;;;;;;;9.78;100.00;100267.31;4864265;29;20555;-93
2023/05/18 06:53:54;;;;;;;2.00;1.48;;;;;;;9.87;100.00;100266.75;4855090;29;20041;-92
2023/05/18 06:56:21;;;;;;;0.20;0.20;;;;;;;9.96;100.00;100270.47;4854523;29;20139;-93
2023/05/18 06:58:46;;;;;;;1.27;0.85;;;;;;;9.95;100.00;100268.16;4854267;29;20052;-95
2023/05/18 07:01:13;;;;;;;0.80;0.80;;;;;;;9.91;100.00;100264.69;4846709;29;20169;-92
2023/05/18 07:03:38;;;;;;;0.25;0.25;;;;;;;9.85;100.00;100245.00;4879507;29;20148;-93
2023/05/18 07:06:04;;;;;;;0.57;0.57;;;;;;;10.04;100.00;100263.59;4867286;29;20393;-93
2023/05/18 07:08:30;;;;;;;1.05;0.98;;;;;;;10.19;100.00;100294.59;4868296;29;20048;-93
2023/05/18 07:10:57;;;;;;;0.35;0.35;;;;;;;10.07;100.00;100271.03;4866520;29;20059;-93
2023/05/18 07:13:23;;;;;;;0.75;0.75;;;;;;;10.26;100.00;100292.47;4851138;29;20045;-93
2023/05/18 07:15:49;;;;;;;0.50;0.50;;;;;;;10.26;100.00;100284.16;4864126;29;20148;-93
2023/05/18 07:18:15;;;;;;;0.68;0.47;;;;;;;10.16;100.00;100270.50;4863951;29;20049;-94
2023/05/18 07:20:40;;;;;;;1.13;1.02;;;;;;;10.29;100.00;100279.72;4863450;29;20041;-93
2023/05/18 07:23:06;;;;;;;1.10;1.02;;;;;;;10.41;100.00;100290.16;4868099;29;20051;-93
2023/05/18 07:25:32;;;;;;;0.10;0.10;;;;;;;10.33;100.00;100285.97;4854155;29;20060;-94
2023/05/18 07:27:57;;;;;;;1.02;0.52;;;;;;;10.34;100.00;100283.97;4863221;29;20165;-92
2023/05/18 07:30:25;;;;;;;0.00;0.00;;;;;;;10.45;100.00;100290.06;4848975;29;20063;-93
2023/05/18 07:32:51;;;;;;;2.45;1.52;;;;;;;10.46;100.00;100280.53;4855084;29;20060;-94
2023/05/18 07:35:18;;;;;;;0.50;0.50;;;;;;;10.46;100.00;100277.78;4853330;29;20497;-94
2023/05/18 07:37:44;;;;;;;1.33;1.25;;;;;;;10.69;100.00;100283.19;4867099;29;20047;-93
2023/05/18 07:40:10;;;;;;;0.20;0.20;;;;;;;10.81;100.00;100285.28;4873713;29;20053;-94
2023/05/18 07:42:37;;;;;;;0.10;0.10;;;;;;;10.88;100.00;100282.31;4878312;29;20043;-93
2023/05/18 07:45:04;;;;;;;0.45;0.45;;;;;;;11.05;100.00;100285.88;4860416;29;20049;-92
2023/05/18 07:47:30;;;;;;;0.38;0.38;;;;;;;11.21;100.00;100295.00;4876176;29;20108;-93
2023/05/18 07:49:55;;;;;;;2.53;1.00;;;;;;;11.28;100.00;100273.81;4871262;29;20045;-92
2023/05/18 07:52:21;;;;;;;0.45;0.45;;;;;;;11.33;100.00;100276.03;4851730;29;20041;-93
2023/05/18 07:54:47;;;;;;;1.00;0.85;;;;;;;11.49;100.00;100295.47;4860436;29;20346;-94
2023/05/18 07:57:12;;;;;;;0.82;0.80;;;;;;;11.45;100.00;100303.91;4843303;29;20037;-94
2023/05/18 07:59:38;;;;;;;1.33;0.63;;;;;;;11.45;100.00;100294.78;4859466;29;20606;-94
2023/05/18 08:02:04;;;;;;;0.38;0.38;;;;;;;11.44;100.00;100294.03;4858816;29;20048;-95
2023/05/18 08:04:29;;;;;;;1.17;0.52;;;;;;;11.46;100.00;100299.13;4862992;29;20048;-93
2023/05/18 08:06:59;;;;;;;0.22;0.22;;;;;;;11.43;100.00;100303.56;4860941;29;20473;-93
2023/05/18 08:09:25;;;;;;;1.08;0.63;;;;;;;11.29;100.00;100297.56;4884036;29;20083;-92
2023/05/18 08:11:51;;;;;;;0.00;0.00;;;;;;;11.34;100.00;100322.06;4861829;29;20424;-93
2023/05/18 08:14:17;;;;;;;0.10;0.10;;;;;;;11.22;100.00;100307.66;4869047;29;20112;-93
2023/05/18 08:16:42;;;;;;;0.55;0.55;;;;;;;11.29;100.00;100309.47;4878092;29;20470;-92
2023/05/18 08:19:08;;;;;;;1.85;0.68;;;;;;;11.22;100.00;100316.00;4866414;29;20131;-93
2023/05/18 08:21:33;;;;;;;0.88;0.82;;;;;;;11.13;100.00;100290.81;4862516;29;20135;-93
2023/05/18 08:23:59;;;;;;;0.35;0.35;;;;;;;11.29;100.00;100320.56;4847517;29;20041;-94
2023/05/18 08:26:25;;;;;;;0.20;0.20;;;;;;;11.17;100.00;100308.19;4874180;29;20048;-94
2023/05/18 08:28:51;;;;;;;0.10;0.10;;;;;;;11.26;100.00;100321.44;4877282;29;20478;-93
2023/05/18 08:31:17;;;;;;;0.40;0.40;;;;;;;11.30;100.00;100315.81;4875035;29;20103;-93
2023/05/18 08:33:43;;;;;;;0.30;0.30;;;;;;;11.31;100.00;100317.38;4865781;29;20465;-93
2023/05/18 08:36:08;;;;;;;0.00;0.00;;;;;;;11.31;100.00;100323.72;4884754;29;20047;-94
2023/05/18 08:38:34;;;;;;;0.30;0.30;;;;;;;11.31;100.00;100322.94;4843334;29;20041;-94
2023/05/18 08:41:09;;;;;;;1.30;0.77;;;;;;;11.43;100.00;100339.66;4870901;29;20052;-92
2023/05/18 08:43:37;;;;;;;0.40;0.40;;;;;;;11.34;100.00;100355.38;4878320;29;20044;-94
2023/05/18 08:46:06;;;;;;;1.75;1.17;;;;;;;11.23;100.00;100317.56;4848623;29;20057;-93
2023/05/18 08:48:33;;;;;;;0.47;0.47;;;;;;;11.48;100.00;100355.03;4855756;29;20052;-92
2023/05/18 08:51:01;;;;;;;1.65;1.33;;;;;;;11.51;100.00;100354.94;4863567;29;20056;-94
2023/05/18 08:53:28;;;;;;;1.20;0.90;;;;;;;11.64;100.00;100352.25;4870751;29;20501;-93
2023/05/18 08:56:13;;;;;;;0.70;0.70;;;;;;;11.69;100.00;100352.47;4873798;29;20103;-93
2023/05/18 08:58:48;;;;;;;0.00;0.00;;;;;;;11.69;100.00;100335.00;4871133;29;20069;-92
2023/05/18 09:01:13;;;;;;;0.82;0.82;;;;;;;11.51;100.00;100318.03;4869158;29;20041;-92
2023/05/18 09:03:40;;;;;;;0.85;0.35;;;;;;;11.83;100.00;100356.91;4858708;29;20052;-92
2023/05/18 09:06:06;;;;;;;1.27;1.10;;;;;;;11.72;100.00;100334.19;4845046;29;20709;-92
2023/05/18 09:08:32;;;;;;;1.50;0.88;;;;;;;11.68;100.00;100322.38;4853284;29;20377;-93
2023/05/18 09:11:00;;;;;;;1.35;0.68;;;;;;;11.81;100.00;100336.34;4879856;29;20108;-92
2023/05/18 09:13:26;;;;;;;1.25;0.90;;;;;;;11.95;100.00;100358.19;4868115;29;20051;-93
2023/05/18 09:15:52;;;;;;;0.47;0.38;;;;;;;12.11;100.00;100363.69;4856429;29;20033;-92
2023/05/18 09:18:18;;;;;;;0.57;0.57;;;;;;;12.02;100.00;100357.97;4876489;29;20139;-93
2023/05/18 09:20:44;;;;;;;0.15;0.15;;;;;;;11.99;100.00;100345.75;4846564;29;20032;-94
2023/05/18 09:23:11;;;;;;;0.73;0.73;;;;;;;11.98;100.00;100351.75;4872900;29;20108;-93
2023/05/18 09:25:42;;;;;;;1.05;0.95;;;;;;;12.13;100.00;100370.38;4858800;29;20060;-93
2023/05/18 09:28:08;;;;;;;1.05;1.02;;;;;;;12.18;100.00;100373.84;4847887;29;20132;-93
2023/05/18 09:30:42;;;;;;;0.35;0.35;;;;;;;12.01;100.00;100329.41;4877050;29;20053;-94
2023/05/18 09:33:23;;;;;;;0.13;0.13;;;;;;;12.30;100.00;100370.31;4861653;29;20079;-94
2023/05/18 09:35:50;;;;;;;0.25;0.22;;;;;;;12.26;100.00;100358.50;4856152;29;20534;-94
2023/05/18 09:38:20;;;;;;;0.57;0.55;;;;;;;12.33;100.00;100366.66;4874908;29;20076;-93
2023/05/18 09:40:48;;;;;;;0.47;0.47;;;;;;;12.21;100.00;100359.06;4891147;29;20537;-92
2023/05/18 09:43:14;;;;;;;0.68;0.30;;;;;;;12.31;100.00;100361.53;4856709;29;20063;-94
2023/05/18 09:45:45;;;;;;;0.43;0.43;;;;;;;12.23;100.00;100370.53;4837302;29;20121;-92
2023/05/18 09:48:10;;;;;;;0.47;0.45;;;;;;;12.23;100.00;100353.84;4880989;29;20044;-92
2023/05/18 09:50:36;;;;;;;0.40;0.40;;;;;;;12.33;100.00;100386.16;4875004;29;20520;-93
2023/05/18 09:53:07;;;;;;;0.43;0.43;;;;;;;12.06;100.00;100373.34;4869209;29;20051;-91
2023/05/18 09:55:35;;;;;;;1.13;0.65;;;;;;;12.07;100.00;100360.25;4855753;29;20049;-92
2023/05/18 09:58:03;;;;;;;0.82;0.82;;;;;;;12.12;100.00;100376.38;4879954;29;20040;-92
2023/05/18 10:00:29;;;;;;;0.10;0.10;;;;;;;12.00;100.00;100357.66;4850452;29;20049;-92
2023/05/18 10:02:55;;;;;;;1.38;0.85;;;;;;;12.13;100.00;100366.84;4862805;29;20242;-93
2023/05/18 10:05:32;;;;;;;0.30;0.30;;;;;;;12.28;100.00;100395.81;4875988;29;20059;-93
2023/05/18 10:07:58;;;;;;;3.25;1.40;;;;;;;12.33;100.00;100394.50;4872776;29;20053;-94
2023/05/18 10:10:25;;;;;;;1.63;1.52;;;;;;;12.33;100.00;100391.72;4860480;29;20055;-92
2023/05/18 10:12:52;;;;;;;1.52;1.30;;;;;;;12.25;100.00;100391.13;4862778;29;20044;-93
2023/05/18 10:15:21;;;;;;;0.85;0.85;;;;;;;12.13;100.00;100373.16;4864908;29;20053;-93
2023/05/18 10:17:47;;;;;;;1.23;1.13;;;;;;;12.11;100.00;100364.47;4861517;29;20077;-93
2023/05/18 10:20:18;;;;;;;0.20;0.20;;;;;;;12.19;100.00;100386.53;4862230;29;20401;-93
2023/05/18 10:22:47;;;;;;;1.15;0.77;;;;;;;12.20;100.00;100379.75;4849684;29;20104;-92
2023/05/18 10:25:21;;;;;;;2.67;1.05;;;;;;;12.23;100.00;100367.75;4853578;29;20044;-93
2023/05/18 10:27:48;;;;;;;0.63;0.43;;;;;;;12.38;100.00;100374.44;4889090;29;20051;-93
2023/05/18 10:30:14;;;;;;;1.40;0.80;;;;;;;12.46;100.00;100384.16;4883643;29;20036;-92
2023/05/18 10:32:41;;;;;;;0.98;0.50;;;;;;;12.43;100.00;100385.84;4893284;29;20071;-93
2023/05/18 10:35:07;;;;;;;0.50;0.50;;;;;;;12.25;100.00;100384.78;4852966;29;20497;-93
2023/05/18 10:37:34;;;;;;;0.55;0.45;;;;;;;12.05;100.00;100377.34;4880175;29;20136;-93
2023/05/18 10:40:02;;;;;;;1.30;1.20;;;;;;;11.97;100.00;100387.09;4877872;29;20053;-94
2023/05/18 10:42:29;;;;;;;1.60;1.40;;;;;;;12.14;100.00;100398.97;4863534;29;20497;-92
2023/05/18 10:45:00;;;;;;;0.63;0.63;;;;;;;12.14;100.00;100396.97;4856077;29;20055;-94
2023/05/18 10:47:30;;;;;;;0.57;0.38;;;;;;;12.12;100.00;100399.41;4861388;29;20045;-93
2023/05/18 10:49:59;;;;;;;1.75;0.98;;;;;;;11.90;100.00;100356.72;4870667;29;20528;-92
2023/05/18 10:52:30;;;;;;;1.13;1.05;;;;;;;12.10;100.00;100381.59;4890185;29;20045;-94
2023/05/18 10:54:58;;;;;;;0.47;0.47;;;;;;;12.32;100.00;100390.13;4866685;29;20048;-92
2023/05/18 10:57:26;;;;;;;0.20;0.20;;;;;;;12.33;100.00;100372.22;4846290;29;20033;-94
2023/05/18 10:59:51;;;;;;;2.67;1.48;;;;;;;12.60;100.00;100389.31;4850083;29;20045;-92
2023/05/18 11:02:17;;;;;;;1.48;0.93;;;;;;;12.61;100.00;100386.09;4863003;29;20063;-92
2023/05/18 11:04:45;;;;;;;2.50;1.45;;;;;;;12.54;100.00;100379.94;4872000;29;20053;-93
2023/05/18 11:07:12;;;;;;;1.08;1.08;;;;;;;12.70;100.00;100391.00;4877631;29;20041;-94
2023/05/18 11:09:43;;;;;;;0.90;0.85;;;;;;;12.70;100.00;100377.06;4860649;29;20094;-93
2023/05/18 11:12:13;;;;;;;0.40;0.40;;;;;;;12.85;100.00;100377.44;4863293;29;20059;-91
2023/05/18 11:14:49;;;;;;;2.90;2.08;;;;;;;12.61;100.00;100368.63;4863614;29;20215;-92
2023/05/18 11:17:25;;;;;;;0.32;0.32;;;;;;;12.76;100.00;100403.16;4848204;29;20130;-93
2023/05/18 11:20:11;;;;;;;1.13;1.05;;;;;;;12.65;100.00;100402.69;4875179;29;20450;-92
2023/05/18 11:22:52;;;;;;;1.30;0.75;;;;;;;12.76;100.00;100407.94;4896268;29;20054;-92
2023/05/18 11:25:27;;;;;;;1.63;1.33;;;;;;;12.65;100.00;100407.47;4853744;29;20056;-94
2023/05/18 11:27:54;;;;;;;1.25;0.80;;;;;;;12.62;100.00;100404.34;4885703;29;20087;-93
2023/05/18 11:30:27;;;;;;;0.75;0.75;;;;;;;12.63;100.00;100391.22;4845895;29;20070;-92
2023/05/18 11:33:09;;;;;;;0.20;0.20;;;;;;;12.68;100.00;100390.66;4846996;29;20052;-93
2023/05/18 11:36:01;;;;;;;5.10;1.58;;;;;;;12.70;100.00;100404.91;4867998;29;20045;-91
2023/05/18 11:38:54;;;;;;;2.50;2.30;;;;;;;12.57;100.00;100410.47;4853035;29;20527;-93
2023/05/18 11:41:41;;;;;;;3.47;1.80;;;;;;;12.56;100.00;100413.69;4878522;29;20429;-92
2023/05/18 11:44:23;;;;;;;3.13;1.52;;;;;;;12.51;100.00;100420.56;4861077;29;20053;-93
2023/05/18 11:46:58;;;;;;;1.60;0.88;;;;;;;12.57;100.00;100402.13;4863279;29;20095;-92
2023/05/18 11:49:25;;;;;;;0.38;0.35;;;;;;;12.57;100.00;100404.13;4864405;29;20096;-93
2023/05/18 11:52:00;;;;;;;0.93;0.93;;;;;;;12.68;100.00;100420.50;4849978;29;20391;-93
2023/05/18 11:54:26;;;;;;;1.65;1.55;;;;;;;12.62;100.00;100409.13;4865419;29;20086;-93
2023/05/18 11:56:52;;;;;;;2.75;2.05;;;;;;;12.56;100.00;100394.22;4869157;29;20497;-93
2023/05/18 11:59:29;;;;;;;5.97;1.02;;;;;;;12.74;100.00;100400.03;4885788;29;20589;-92
2023/05/18 12:01:56;;;;;;;1.23;1.13;;;;;;;12.70;100.00;100368.72;4862624;29;20179;-94
2023/05/18 12:04:23;;;;;;;2.10;1.90;;;;;;;13.12;100.00;100407.66;4862587;29;20064;-94
2023/05/18 12:06:50;;;;;;;0.82;0.82;;;;;;;13.03;100.00;100416.66;4893345;29;20124;-93
2023/05/18 12:09:16;;;;;;;0.32;0.32;;;;;;;13.04;100.00;100395.94;4889405;29;20168;-93
2023/05/18 12:11:42;;;;;;;2.05;0.63;;;;;;;13.20;100.00;100403.44;4861711;29;20608;-93
2023/05/18 12:14:08;;;;;;;1.85;0.93;;;;;;;13.41;100.00;100413.91;4883550;29;20138;-93
2023/05/18 12:16:35;;;;;;;0.38;0.38;;;;;;;13.41;100.00;100402.75;4864319;29;20033;-94
2023/05/18 12:19:01;;;;;;;0.98;0.95;;;;;;;13.55;100.00;100397.47;4878132;29;20056;-93
2023/05/18 12:21:26;;;;;;;0.52;0.50;;;;;;;13.67;100.00;100398.69;4849639;29;20198;-93
2023/05/18 12:23:59;;;;;;;1.30;1.10;;;;;;;13.87;100.00;100415.91;4859292;29;20053;-94
2023/05/18 12:26:27;;;;;;;2.88;1.83;;;;;;;13.87;100.00;100390.81;4866255;29;20405;-93
2023/05/18 12:28:53;;;;;;;1.58;1.45;;;;;;;13.86;100.00;100405.25;4845225;29;20040;-94
2023/05/18 12:31:19;;;;;;;1.67;1.58;;;;;;;13.71;100.00;100390.22;4846914;29;20064;-94
2023/05/18 12:33:45;;;;;;;4.57;1.25;;;;;;;13.81;100.00;100428.09;4868830;29;20049;-94
2023/05/18 12:36:12;;;;;;;2.30;1.50;;;;;;;13.70;100.00;100430.47;4886134;29;20040;-95
2023/05/18 12:38:38;;;;;;;1.00;1.00;;;;;;;13.45;100.00;100414.56;4861331;29;20076;-92
2023/05/18 12:41:05;;;;;;;16.17;2.38;;;;;;;13.15;100.00;100406.75;4864710;29;20071;-93
2023/05/18 12:43:35;;;;;;;1.30;0.93;;;;;;;13.10;100.00;100394.19;4875346;29;20044;-93
2023/05/18 12:46:04;;;;;;;2.45;0.98;;;;;;;13.14;100.00;100421.94;4846139;29;20053;-94
2023/05/18 12:48:45;;;;;;;0.85;0.80;;;;;;;13.03;100.00;100406.28;4853260;29;20092;-94
2023/05/18 12:51:18;;;;;;;0.95;0.88;;;;;;;13.23;100.00;100424.81;4871507;29;20544;-93
2023/05/18 12:53:44;;;;;;;0.82;0.80;;;;;;;13.30;100.00;100417.03;4855498;29;20076;-94
2023/05/18 12:56:10;;;;;;;6.13;1.52;;;;;;;13.39;100.00;100421.91;4860831;29;20513;-94
2023/05/18 12:58:36;;;;;;;1.50;1.00;;;;;;;13.60;100.00;100415.66;4868225;29;20119;-93
2023/05/18 13:01:09;;;;;;;1.27;1.17;;;;;;;13.32;100.00;100422.94;4879801;29;20554;-93
2023/05/18 13:03:39;;;;;;;1.80;1.13;;;;;;;13.38;100.00;100437.09;4863256;29;20051;-93
2023/05/18 13:06:06;;;;;;;1.88;1.55;;;;;;;13.45;100.00;100425.72;4861127;29;20495;-93
2023/05/18 13:08:33;;;;;;;1.35;0.82;;;;;;;13.46;100.00;100427.28;4876068;29;20080;-93
2023/05/18 13:11:03;;;;;;;2.33;1.40;;;;;;;13.52;100.00;100425.47;4858845;29;20072;-92
2023/05/18 13:13:28;;;;;;;1.30;1.13;;;;;;;13.18;100.00;100400.31;4870707;29;20077;-92
2023/05/18 13:15:54;;;;;;;2.05;1.42;;;;;;;13.46;100.00;100432.84;4874204;29;20103;-93
2023/05/18 13:18:20;;;;;;;0.32;0.32;;;;;;;13.52;100.00;100431.06;4873052;29;20048;-93
2023/05/18 13:20:48;;;;;;;4.22;1.27;;;;;;;13.57;100.00;100432.50;4867492;29;20514;-93
2023/05/18 13:23:16;;;;;;;1.40;1.20;;;;;;;13.46;100.00;100430.84;4856614;29;20097;-93
2023/05/18 13:25:42;;;;;;;2.25;1.75;;;;;;;13.60;100.00;100420.44;4866884;29;20135;-92
2023/05/18 13:28:11;;;;;;;4.88;1.58;;;;;;;13.75;100.00;100443.84;4859797;29;20119;-93
2023/05/18 13:30:37;;;;;;;0.57;0.57;;;;;;;13.69;100.00;100440.06;4893792;29;20052;-93
2023/05/18 13:33:06;;;;;;;0.90;0.90;;;;;;;13.63;100.00;100431.47;4861531;29;20037;-93
2023/05/18 13:35:32;;;;;;;5.82;1.02;;;;;;;13.59;100.00;100446.78;4855292;29;20171;-93
2023/05/18 13:37:58;;;;;;;3.05;0.75;;;;;;;13.61;100.00;100447.88;4868931;29;20602;-93
2023/05/18 13:40:24;;;;;;;0.88;0.65;;;;;;;13.76;100.00;100448.97;4860364;29;20041;-89
2023/05/18 13:42:50;;;;;;;0.45;0.45;;;;;;;13.59;100.00;100402.94;4891468;29;20052;-90
2023/05/18 14:36:32;;;;;;;0.80;0.80;;;;;;;12.53;100.00;100407.00;4905919;29;20053;-94
2023/05/18 14:38:59;;;;;;;1.13;1.02;;;;;;;12.59;100.00;100408.03;4894119;29;20608;-90
2023/05/18 14:41:24;;;;;;;3.22;1.27;;;;;;;12.77;100.00;100434.56;4855581;29;20041;-92
2023/05/18 14:43:52;;;;;;;1.75;0.82;;;;;;;12.68;100.00;100446.34;4858477;29;20520;-92
2023/05/18 14:46:18;;;;;;;1.13;1.08;;;;;;;12.59;100.00;100421.16;4871992;29;20056;-93
2023/05/18 14:48:43;;;;;;;0.65;0.65;;;;;;;12.67;100.00;100433.63;4856636;29;20041;-92
2023/05/18 14:51:09;;;;;;;0.70;0.70;;;;;;;12.35;100.00;100411.50;4844954;29;20896;-92
2023/05/18 14:53:34;;;;;;;2.10;1.85;;;;;;;12.49;100.00;100450.06;4863227;29;20504;-93
2023/05/18 14:56:04;;;;;;;1.38;1.27;;;;;;;12.25;100.00;100448.75;4861740;29;20143;-92
2023/05/18 14:58:31;;;;;;;1.55;1.02;;;;;;;12.22;100.00;100446.81;4856191;29;20574;-93
2023/05/18 15:00:57;;;;;;;2.08;1.65;;;;;;;11.87;100.00;100404.06;4861552;29;20040;-90
2023/05/18 15:03:23;;;;;;;0.77;0.75;;;;;;;11.78;100.00;100407.47;4848735;29;20052;-91
2023/05/18 15:05:48;;;;;;;1.23;0.80;;;;;;;11.61;100.00;100397.53;4853582;29;20109;-93
2023/05/18 15:08:14;;;;;;;1.60;1.23;;;;;;;11.81;100.00;100444.75;4835741;29;20543;-92
2023/05/18 15:10:39;;;;;;;3.30;1.50;;;;;;;11.61;100.00;100442.78;4839341;29;20059;-92
2023/05/18 15:13:05;;;;;;;1.33;1.23;;;;;;;11.67;100.00;100443.84;4857262;29;20056;-92
2023/05/18 15:15:31;;;;;;;2.40;1.33;;;;;;;11.38;100.00;100406.84;4838765;29;20113;-91
2023/05/18 15:17:56;;;;;;;9.43;1.73;;;;;;;11.57;100.00;100435.75;4873222;29;20055;-91